createdAt,value
2022-08-02T00:00:31.828Z,7.70
2022-08-02T00:01:31.919Z,9.20
2022-08-02T00:02:31.797Z,7.80
2022-08-02T00:03:31.780Z,6.90
2022-08-02T00:04:31.769Z,8.90
2022-08-02T00:05:31.796Z,8.60
2022-08-02T00:06:31.733Z,7.80
2022-08-02T00:07:31.721Z,8.70
2022-08-02T00:08:31.697Z,7.30
2022-08-02T00:09:31.681Z,9.00
2022-08-02T00:10:31.665Z,7.20
2022-08-02T00:11:31.649Z,8.10
2022-08-02T00:12:31.636Z,7.90
2022-08-02T00:13:31.617Z,9.80
2022-08-02T00:14:31.611Z,8.20
2022-08-02T00:15:31.589Z,8.40
2022-08-02T00:16:37.988Z,7.30
2022-08-02T00:17:31.583Z,8.00
2022-08-02T00:18:31.538Z,7.40
2022-08-02T00:19:31.521Z,7.20
2022-08-02T00:20:31.507Z,5.30
2022-08-02T00:21:31.490Z,8.40
2022-08-02T00:22:31.471Z,9.30
2022-08-02T00:23:31.458Z,6.80
2022-08-02T00:24:31.439Z,7.60
2022-08-02T00:25:31.420Z,10.50
2022-08-02T00:26:31.409Z,6.60
2022-08-02T00:27:31.395Z,6.10
2022-08-02T00:28:31.373Z,7.40
2022-08-02T00:29:31.684Z,7.80
2022-08-02T00:30:31.339Z,7.10
2022-08-02T00:31:31.323Z,7.20
2022-08-02T00:32:31.307Z,7.30
2022-08-02T00:34:27.023Z,9.60
2022-08-02T00:34:34.009Z,7.70
2022-08-02T00:35:31.261Z,7.50
2022-08-02T00:36:31.241Z,7.00
2022-08-02T00:37:31.230Z,7.40
2022-08-02T00:38:31.210Z,8.90
2022-08-02T00:39:33.538Z,8.40
2022-08-02T00:40:31.187Z,7.40
2022-08-02T00:41:31.159Z,7.40
2022-08-02T00:42:31.140Z,8.60
2022-08-02T00:43:31.127Z,8.40
2022-08-02T00:44:31.108Z,5.70
2022-08-02T00:46:03.416Z,8.00
2022-08-02T00:46:31.417Z,7.90
2022-08-02T00:47:31.058Z,10.60
2022-08-02T00:48:31.040Z,8.70
2022-08-02T00:49:31.073Z,8.20
2022-08-02T00:50:31.012Z,10.00
2022-08-02T00:51:31.036Z,10.30
2022-08-02T00:52:30.980Z,7.30
2022-08-02T00:53:30.962Z,7.30
2022-08-02T00:54:30.948Z,9.00
2022-08-02T00:55:31.490Z,7.50
2022-08-02T00:56:31.122Z,6.60
2022-08-02T00:57:30.899Z,7.80
2022-08-02T00:58:30.879Z,6.00
2022-08-02T00:59:30.864Z,6.60
2022-08-02T01:00:30.845Z,7.70
2022-08-02T01:01:30.898Z,5.40
2022-08-02T01:02:30.816Z,6.10
2022-08-02T01:03:30.797Z,7.50
2022-08-02T01:04:32.226Z,7.50
2022-08-02T01:05:35.979Z,7.80
2022-08-02T01:06:30.747Z,7.80
2022-08-02T01:07:30.731Z,6.40
2022-08-02T01:08:31.953Z,7.40
2022-08-02T01:09:30.700Z,6.70
2022-08-02T01:10:30.677Z,6.00
2022-08-02T01:11:30.708Z,10.00
2022-08-02T01:12:30.645Z,7.50
2022-08-02T01:13:30.632Z,8.50
2022-08-02T01:14:30.615Z,9.10
2022-08-02T01:15:36.164Z,8.10
2022-08-02T01:16:30.576Z,7.60
2022-08-02T01:17:30.561Z,7.70
2022-08-02T01:18:30.780Z,6.90
2022-08-02T01:19:30.528Z,8.90
2022-08-02T01:20:30.516Z,8.80
2022-08-02T01:21:30.498Z,7.10
2022-08-02T01:22:58.537Z,8.80
2022-08-02T01:23:30.460Z,7.80
2022-08-02T01:24:30.472Z,7.90
2022-08-02T01:25:30.429Z,5.90
2022-08-02T01:26:30.410Z,8.30
2022-08-02T01:27:30.400Z,9.40
2022-08-02T01:28:30.383Z,7.20
2022-08-02T01:29:30.359Z,10.00
2022-08-02T01:30:30.346Z,8.30
2022-08-02T01:31:30.332Z,5.90
2022-08-02T01:32:30.311Z,8.80
2022-08-02T01:33:30.298Z,7.10
2022-08-02T01:34:30.279Z,11.80
2022-08-02T01:35:30.269Z,6.00
2022-08-02T01:36:30.245Z,6.50
2022-08-02T01:37:30.233Z,8.20
2022-08-02T01:38:30.224Z,7.40
2022-08-02T01:39:32.232Z,9.20
2022-08-02T01:40:30.181Z,6.60
2022-08-02T01:41:30.163Z,7.70
2022-08-02T01:42:30.142Z,7.50
2022-08-02T01:43:30.129Z,9.80
2022-08-02T01:44:30.113Z,6.60
2022-08-02T01:45:30.094Z,9.10
2022-08-02T01:46:30.100Z,7.80
2022-08-02T01:47:30.061Z,10.50
2022-08-02T01:48:30.041Z,9.10
2022-08-02T01:49:30.169Z,8.20
2022-08-02T01:50:30.012Z,10.70
2022-08-02T01:51:30.000Z,6.30
2022-08-02T01:52:29.981Z,9.00
2022-08-02T01:53:29.960Z,5.90
2022-08-02T01:54:29.945Z,7.20
2022-08-02T01:55:35.299Z,8.40
2022-08-02T01:56:29.908Z,9.00
2022-08-02T01:57:29.892Z,7.20
2022-08-02T01:58:29.911Z,10.10
2022-08-02T01:59:29.859Z,6.80
2022-08-02T02:00:30.173Z,9.80
2022-08-02T02:01:29.880Z,7.40
2022-08-02T02:02:31.775Z,9.30
2022-08-02T02:03:29.794Z,9.70
2022-08-02T02:04:29.782Z,7.40
2022-08-02T02:05:30.088Z,9.40
2022-08-02T02:06:29.744Z,9.00
2022-08-02T02:07:29.730Z,9.00
2022-08-02T02:08:29.709Z,6.40
2022-08-02T02:09:29.696Z,8.30
2022-08-02T02:10:29.678Z,8.40
2022-08-02T02:12:05.885Z,9.50
2022-08-02T02:12:29.645Z,9.50
2022-08-02T02:13:33.792Z,8.00
2022-08-02T02:14:29.604Z,8.00
2022-08-02T02:15:29.590Z,6.80
2022-08-02T02:16:29.575Z,9.40
2022-08-02T02:18:10.853Z,8.80
2022-08-02T02:18:29.536Z,6.90
2022-08-02T02:19:29.526Z,8.10
2022-08-02T02:20:29.508Z,10.40
2022-08-02T02:21:29.494Z,7.00
2022-08-02T02:22:29.475Z,6.30
2022-08-02T02:23:32.777Z,7.30
2022-08-02T02:24:29.440Z,7.40
2022-08-02T02:25:35.878Z,9.50
2022-08-02T02:26:31.630Z,9.70
2022-08-02T02:27:29.392Z,8.70
2022-08-02T02:28:29.369Z,7.60
2022-08-02T02:29:29.360Z,9.00
2022-08-02T02:30:29.335Z,7.80
2022-08-02T02:31:29.320Z,6.10
2022-08-02T02:32:29.305Z,6.90
2022-08-02T02:33:29.654Z,8.50
2022-08-02T02:34:29.273Z,6.90
2022-08-02T02:35:29.255Z,6.80
2022-08-02T02:36:29.237Z,7.30
2022-08-02T02:37:29.222Z,8.20
2022-08-02T02:38:29.202Z,8.90
2022-08-02T02:39:29.188Z,9.60
2022-08-02T02:40:29.169Z,7.90
2022-08-02T02:41:29.304Z,8.50
2022-08-02T02:42:29.136Z,7.00
2022-08-02T02:43:29.118Z,6.30
2022-08-02T02:44:29.108Z,11.30
2022-08-02T02:45:29.084Z,8.10
2022-08-02T02:46:29.070Z,7.50
2022-08-02T02:47:40.761Z,7.70
2022-08-02T02:48:29.034Z,7.10
2022-08-02T02:49:29.085Z,6.90
2022-08-02T02:50:28.998Z,6.50
2022-08-02T02:51:28.987Z,8.80
2022-08-02T02:52:28.963Z,8.40
2022-08-02T02:53:28.949Z,8.40
2022-08-02T02:54:34.467Z,8.40
2022-08-02T02:55:28.921Z,7.30
2022-08-02T02:56:28.895Z,9.30
2022-08-02T02:57:28.880Z,9.00
2022-08-02T02:58:29.179Z,10.90
2022-08-02T02:59:28.848Z,9.10
2022-08-02T03:00:28.832Z,7.20
2022-08-02T03:01:55.378Z,12.00
2022-08-02T03:02:28.796Z,9.00
2022-08-02T03:03:28.779Z,8.50
2022-08-02T03:04:56.356Z,7.40
2022-08-02T03:05:28.746Z,8.20
2022-08-02T03:06:28.728Z,9.00
2022-08-02T03:07:28.712Z,6.90
2022-08-02T03:08:28.697Z,8.30
2022-08-02T03:09:28.679Z,9.30
2022-08-02T03:10:28.657Z,9.00
2022-08-02T03:11:28.639Z,6.00
2022-08-02T03:12:31.793Z,7.60
2022-08-02T03:13:33.171Z,9.30
2022-08-02T03:14:28.588Z,7.70
2022-08-02T03:15:28.572Z,6.00
2022-08-02T03:16:28.553Z,6.90
2022-08-02T03:17:28.540Z,5.60
2022-08-02T03:18:28.519Z,9.00
2022-08-02T03:19:33.196Z,7.20
2022-08-02T03:20:28.489Z,6.60
2022-08-02T03:21:28.473Z,8.90
2022-08-02T03:22:28.451Z,7.30
2022-08-02T03:23:28.437Z,9.60
2022-08-02T03:24:28.598Z,7.40
2022-08-02T03:25:28.400Z,8.90
2022-08-02T03:26:28.386Z,9.70
2022-08-02T03:27:28.367Z,7.10
2022-08-02T03:28:28.349Z,8.20
2022-08-02T03:29:31.508Z,8.40
2022-08-02T03:30:28.317Z,7.90
2022-08-02T03:31:28.307Z,10.10
2022-08-02T03:32:28.279Z,8.60
2022-08-02T03:33:28.263Z,8.40
2022-08-02T03:34:28.246Z,8.90
2022-08-02T03:35:28.229Z,8.50
2022-08-02T03:36:28.215Z,7.50
2022-08-02T03:37:28.192Z,8.30
2022-08-02T03:38:29.185Z,7.30
2022-08-02T03:39:28.162Z,10.20
2022-08-02T03:40:28.143Z,7.00
2022-08-02T03:41:28.129Z,8.70
2022-08-02T03:42:28.107Z,7.00
2022-08-02T03:43:28.611Z,6.90
2022-08-02T03:44:28.076Z,10.30
2022-08-02T03:45:28.057Z,10.00
2022-08-02T03:46:28.042Z,8.10
2022-08-02T03:47:28.018Z,10.50
2022-08-02T03:48:31.894Z,9.00
2022-08-02T03:49:28.093Z,8.40
2022-08-02T03:50:27.969Z,10.70
2022-08-02T03:51:27.952Z,5.80
2022-08-02T03:52:27.935Z,7.10
2022-08-02T03:53:27.913Z,10.00
2022-08-02T03:54:34.764Z,6.50
2022-08-02T03:55:27.882Z,7.30
2022-08-02T03:56:27.862Z,7.60
2022-08-02T03:57:27.852Z,6.70
2022-08-02T03:58:27.826Z,7.40
2022-08-02T03:59:27.815Z,7.60
2022-08-02T04:00:27.802Z,7.50
2022-08-02T04:01:27.876Z,9.20
2022-08-02T04:02:27.757Z,7.70
2022-08-02T04:03:27.742Z,6.50
2022-08-02T04:04:27.728Z,7.10
2022-08-02T04:05:27.708Z,9.00
2022-08-02T04:06:28.457Z,7.40
2022-08-02T04:08:33.505Z,7.80
2022-08-02T04:08:37.125Z,6.00
2022-08-02T04:09:27.637Z,8.70
2022-08-02T04:10:27.620Z,7.50
2022-08-02T04:11:27.604Z,10.80
2022-08-02T04:12:27.587Z,6.80
2022-08-02T04:13:31.657Z,6.60
2022-08-02T04:14:27.551Z,6.10
2022-08-02T04:15:27.534Z,9.10
2022-08-02T04:16:27.515Z,6.90
2022-08-02T04:17:27.504Z,6.50
2022-08-02T04:18:27.482Z,7.40
2022-08-02T04:19:27.462Z,6.70
2022-08-02T04:20:27.448Z,7.60
2022-08-02T04:21:48.432Z,6.10
2022-08-02T04:22:27.414Z,7.70
2022-08-02T04:23:27.395Z,9.10
2022-08-02T04:24:27.376Z,9.60
2022-08-02T04:25:35.239Z,7.20
2022-08-02T04:26:28.498Z,6.70
2022-08-02T04:27:50.620Z,8.70
2022-08-02T04:28:27.614Z,7.30
2022-08-02T04:29:27.289Z,6.50
2022-08-02T04:30:27.270Z,6.60
2022-08-02T04:31:27.252Z,7.70
2022-08-02T04:32:27.239Z,6.30
2022-08-02T04:33:27.224Z,7.60
2022-08-02T04:34:27.201Z,8.20
2022-08-02T04:35:27.185Z,7.40
2022-08-02T04:36:30.931Z,10.10
2022-08-02T04:37:27.154Z,7.00
2022-08-02T04:38:27.142Z,7.50
2022-08-02T04:39:27.119Z,8.10
2022-08-02T04:40:27.101Z,9.10
2022-08-02T04:41:27.078Z,8.80
2022-08-02T04:42:27.060Z,7.90
2022-08-02T04:43:27.051Z,7.40
2022-08-02T04:44:27.030Z,7.80
2022-08-02T04:45:27.010Z,8.00
2022-08-02T04:46:26.994Z,7.50
2022-08-02T04:48:02.358Z,7.20
2022-08-02T04:48:26.960Z,13.70
2022-08-02T04:49:27.086Z,8.30
2022-08-02T04:50:26.924Z,8.70
2022-08-02T04:51:38.180Z,7.70
2022-08-02T04:52:26.891Z,7.30
2022-08-02T04:53:26.878Z,8.00
2022-08-02T04:54:26.854Z,10.00
2022-08-02T04:55:26.840Z,7.10
2022-08-02T04:56:26.820Z,9.90
2022-08-02T04:57:26.802Z,10.20
2022-08-02T04:58:42.269Z,8.70
2022-08-02T04:59:26.769Z,9.20
2022-08-02T05:00:26.930Z,12.40
2022-08-02T05:01:26.734Z,9.80
2022-08-02T05:02:26.720Z,8.40
2022-08-02T05:03:26.706Z,10.00
2022-08-02T05:04:26.690Z,12.40
2022-08-02T05:05:26.667Z,9.00
2022-08-02T05:06:26.647Z,8.60
2022-08-02T05:07:26.636Z,13.10
2022-08-02T05:08:26.614Z,10.70
2022-08-02T05:09:26.599Z,9.20
2022-08-02T05:10:26.581Z,11.70
2022-08-02T05:11:34.385Z,10.20
2022-08-02T05:12:26.548Z,11.30
2022-08-02T05:13:26.533Z,10.10
2022-08-02T05:14:26.513Z,8.50
2022-08-02T05:15:29.271Z,10.40
2022-08-02T05:16:30.885Z,8.20
2022-08-02T05:17:26.463Z,9.80
2022-08-02T05:18:26.444Z,10.00
2022-08-02T05:19:26.431Z,11.20
2022-08-02T05:20:26.411Z,11.80
2022-08-02T05:21:26.409Z,9.40
2022-08-02T05:22:26.374Z,10.50
2022-08-02T05:23:26.365Z,11.90
2022-08-02T05:24:26.342Z,10.90
2022-08-02T05:25:26.325Z,10.20
2022-08-02T05:26:26.307Z,12.10
2022-08-02T05:27:26.291Z,10.60
2022-08-02T05:28:26.275Z,9.00
2022-08-02T05:29:26.259Z,13.40
2022-08-02T05:30:26.243Z,9.90
2022-08-02T05:31:26.227Z,9.90
2022-08-02T05:32:26.206Z,9.70
2022-08-02T05:33:26.196Z,10.20
2022-08-02T05:34:26.177Z,11.40
2022-08-02T05:35:26.160Z,10.00
2022-08-02T05:36:26.145Z,10.80
2022-08-02T05:37:26.128Z,8.80
2022-08-02T05:38:26.382Z,14.10
2022-08-02T05:39:26.089Z,10.70
2022-08-02T05:40:26.323Z,9.70
2022-08-02T05:41:26.056Z,14.40
2022-08-02T05:42:26.040Z,10.00
2022-08-02T05:43:26.019Z,11.70
2022-08-02T05:44:26.006Z,10.90
2022-08-02T05:45:25.985Z,11.80
2022-08-02T05:46:25.970Z,11.40
2022-08-02T05:47:25.993Z,11.10
2022-08-02T05:48:31.169Z,9.50
2022-08-02T05:49:25.977Z,9.80
2022-08-02T05:50:25.901Z,9.40
2022-08-02T05:51:25.886Z,13.70
2022-08-02T05:52:25.872Z,14.50
2022-08-02T05:53:25.854Z,13.10
2022-08-02T05:54:25.836Z,8.80
2022-08-02T05:55:25.819Z,12.50
2022-08-02T05:56:25.801Z,10.20
2022-08-02T05:57:25.784Z,12.20
2022-08-02T05:58:25.769Z,15.00
2022-08-02T05:59:25.750Z,15.40
2022-08-02T06:00:25.737Z,10.80
2022-08-02T06:01:25.792Z,14.00
2022-08-02T06:02:30.207Z,11.30
2022-08-02T06:03:25.688Z,13.20
2022-08-02T06:04:25.671Z,11.10
2022-08-02T06:05:25.649Z,14.00
2022-08-02T06:06:25.637Z,11.40
2022-08-02T06:07:25.708Z,11.90
2022-08-02T06:08:25.621Z,12.50
2022-08-02T06:09:27.178Z,15.90
2022-08-02T06:10:25.563Z,14.50
2022-08-02T06:11:25.549Z,14.80
2022-08-02T06:12:25.531Z,13.20
2022-08-02T06:13:25.514Z,14.10
2022-08-02T06:14:25.499Z,10.40
2022-08-02T06:15:25.485Z,15.70
2022-08-02T06:16:31.727Z,11.40
2022-08-02T06:17:25.446Z,13.20
2022-08-02T06:18:28.600Z,13.30
2022-08-02T06:19:25.425Z,12.50
2022-08-02T06:20:25.398Z,14.90
2022-08-02T06:22:32.596Z,14.20
2022-08-02T06:22:33.474Z,14.20
2022-08-02T06:23:25.350Z,13.00
2022-08-02T06:24:25.340Z,16.50
2022-08-02T06:25:49.714Z,11.60
2022-08-02T06:26:25.301Z,15.20
2022-08-02T06:27:25.286Z,11.90
2022-08-02T06:28:25.266Z,14.50
2022-08-02T06:29:25.252Z,17.40
2022-08-02T06:30:25.235Z,14.00
2022-08-02T06:31:25.235Z,17.60
2022-08-02T06:32:25.204Z,15.50
2022-08-02T06:33:25.181Z,18.10
2022-08-02T06:34:25.172Z,16.00
2022-08-02T06:35:25.153Z,17.10
2022-08-02T06:36:25.141Z,17.00
2022-08-02T06:37:25.120Z,15.20
2022-08-02T06:38:25.110Z,15.50
2022-08-02T06:39:25.091Z,14.40
2022-08-02T06:40:25.087Z,14.70
2022-08-02T06:41:25.058Z,14.00
2022-08-02T06:42:27.219Z,17.40
2022-08-02T06:43:25.027Z,13.50
2022-08-02T06:44:49.800Z,15.20
2022-08-02T06:45:24.990Z,13.70
2022-08-02T06:47:02.030Z,15.80
2022-08-02T06:47:24.964Z,13.20
2022-08-02T06:48:24.950Z,13.70
2022-08-02T06:49:25.043Z,16.30
2022-08-02T06:50:24.943Z,14.70
2022-08-02T06:51:24.900Z,15.60
2022-08-02T06:52:28.359Z,14.60
2022-08-02T06:53:24.867Z,18.90
2022-08-02T06:54:24.853Z,15.20
2022-08-02T06:55:24.835Z,16.90
2022-08-02T06:56:24.835Z,14.40
2022-08-02T06:57:24.809Z,13.20
2022-08-02T06:58:24.793Z,14.20
2022-08-02T06:59:24.776Z,13.20
2022-08-02T07:00:24.824Z,14.60
2022-08-02T07:01:24.799Z,14.60
2022-08-02T07:02:24.730Z,14.10
2022-08-02T07:03:24.721Z,14.50
2022-08-02T07:04:24.701Z,13.30
2022-08-02T07:05:24.682Z,15.90
2022-08-02T07:06:24.670Z,15.20
2022-08-02T07:07:24.660Z,17.60
2022-08-02T07:08:24.639Z,17.20
2022-08-02T07:09:24.628Z,18.60
2022-08-02T07:10:24.608Z,15.40
2022-08-02T07:11:24.602Z,16.00
2022-08-02T07:12:24.611Z,18.50
2022-08-02T07:13:24.563Z,17.00
2022-08-02T07:14:24.551Z,17.10
2022-08-02T07:15:24.536Z,18.80
2022-08-02T07:16:24.520Z,16.90
2022-08-02T07:17:24.504Z,15.90
2022-08-02T07:18:24.509Z,15.70
2022-08-02T07:19:31.931Z,16.10
2022-08-02T07:20:24.464Z,16.60
2022-08-02T07:21:56.844Z,15.60
2022-08-02T07:22:24.666Z,19.30
2022-08-02T07:23:24.416Z,15.70
2022-08-02T07:24:24.402Z,15.80
2022-08-02T07:25:24.389Z,18.10
2022-08-02T07:26:24.371Z,14.70
2022-08-02T07:27:24.357Z,16.20
2022-08-02T07:28:24.884Z,15.60
2022-08-02T07:29:24.329Z,16.50
2022-08-02T07:30:24.330Z,16.60
2022-08-02T07:31:24.308Z,16.60
2022-08-02T07:32:24.295Z,16.30
2022-08-02T07:33:37.691Z,12.00
2022-08-02T07:34:24.260Z,13.40
2022-08-02T07:35:24.245Z,17.70
2022-08-02T07:36:24.264Z,15.20
2022-08-02T07:37:35.358Z,14.80
2022-08-02T07:38:24.207Z,13.60
2022-08-02T07:39:24.188Z,11.80
2022-08-02T07:40:24.240Z,11.60
2022-08-02T07:41:24.161Z,11.70
2022-08-02T07:42:24.147Z,12.90
2022-08-02T07:43:24.137Z,12.90
2022-08-02T07:44:24.125Z,12.00
2022-08-02T07:45:24.113Z,12.00
2022-08-02T07:46:24.098Z,12.70
2022-08-02T07:47:24.082Z,11.70
2022-08-02T07:48:24.072Z,14.00
2022-08-02T07:49:24.195Z,11.10
2022-08-02T07:50:24.048Z,10.50
2022-08-02T07:51:24.031Z,11.30
2022-08-02T07:52:24.011Z,9.70
2022-08-02T07:53:49.872Z,10.50
2022-08-02T07:54:23.985Z,9.90
2022-08-02T07:55:23.980Z,9.80
2022-08-02T07:56:23.965Z,10.10
2022-08-02T07:57:23.951Z,9.80
2022-08-02T07:58:23.933Z,8.80
2022-08-02T07:59:23.921Z,8.10
2022-08-02T08:00:23.928Z,10.90
2022-08-02T08:01:23.969Z,10.20
2022-08-02T08:02:23.887Z,9.20
2022-08-02T08:03:23.875Z,8.10
2022-08-02T08:04:23.881Z,7.80
2022-08-02T08:05:23.848Z,7.70
2022-08-02T08:06:28.596Z,11.50
2022-08-02T08:07:23.832Z,7.20
2022-08-02T08:08:23.823Z,10.20
2022-08-02T08:09:23.810Z,8.60
2022-08-02T08:10:23.800Z,8.30
2022-08-02T08:11:23.800Z,7.50
2022-08-02T08:12:23.789Z,7.30
2022-08-02T08:13:23.773Z,10.40
2022-08-02T08:14:23.761Z,8.70
2022-08-02T08:15:23.760Z,8.00
2022-08-02T08:16:23.751Z,7.90
2022-08-02T08:17:23.741Z,6.70
2022-08-02T08:18:23.733Z,7.00
2022-08-02T08:19:50.445Z,7.80
2022-08-02T08:20:23.725Z,8.50
2022-08-02T08:21:23.718Z,6.40
2022-08-02T08:22:23.710Z,7.80
2022-08-02T08:23:23.707Z,7.90
2022-08-02T08:24:23.698Z,6.00
2022-08-02T08:25:23.691Z,5.40
2022-08-02T08:26:23.688Z,7.40
2022-08-02T08:27:23.685Z,5.00
2022-08-02T08:28:23.677Z,6.20
2022-08-02T08:29:23.673Z,6.50
2022-08-02T08:30:23.669Z,8.20
2022-08-02T08:31:23.663Z,5.30
2022-08-02T08:32:24.158Z,6.10
2022-08-02T08:33:23.649Z,6.20
2022-08-02T08:34:23.646Z,8.70
2022-08-02T08:35:23.640Z,7.40
2022-08-02T08:36:23.633Z,9.20
2022-08-02T08:37:23.627Z,7.80
2022-08-02T08:38:23.617Z,6.40
2022-08-02T08:39:23.616Z,7.30
2022-08-02T08:40:23.609Z,5.60
2022-08-02T08:41:23.604Z,8.00
2022-08-02T08:42:23.595Z,9.00
2022-08-02T08:43:23.589Z,6.00
2022-08-02T08:44:23.582Z,6.70
2022-08-02T08:45:23.578Z,6.20
2022-08-02T08:46:23.575Z,6.00
2022-08-02T08:47:23.575Z,8.70
2022-08-02T08:48:30.529Z,6.70
2022-08-02T08:49:23.610Z,6.00
2022-08-02T08:50:25.448Z,9.00
2022-08-02T08:51:23.552Z,6.30
2022-08-02T08:52:23.547Z,5.90
2022-08-02T08:53:23.551Z,7.70
2022-08-02T08:54:23.540Z,5.60
2022-08-02T08:55:23.538Z,6.00
2022-08-02T08:56:23.540Z,6.50
2022-08-02T08:57:23.535Z,5.70
2022-08-02T08:58:23.532Z,6.70
2022-08-02T08:59:23.528Z,6.60
2022-08-02T09:00:23.524Z,6.90
2022-08-02T09:01:23.603Z,7.70
2022-08-02T09:02:26.163Z,5.70
2022-08-02T09:03:23.517Z,6.50
2022-08-02T09:04:23.530Z,7.00
2022-08-02T09:05:23.514Z,7.20
2022-08-02T09:06:23.514Z,5.30
2022-08-02T09:07:23.514Z,6.80
2022-08-02T09:08:23.509Z,5.30
2022-08-02T09:09:23.508Z,7.10
2022-08-02T09:10:23.506Z,5.30
2022-08-02T09:11:23.511Z,4.90
2022-08-02T09:12:23.522Z,6.90
2022-08-02T09:13:38.127Z,5.80
2022-08-02T09:14:23.502Z,5.10
2022-08-02T09:15:23.505Z,6.40
2022-08-02T09:16:23.500Z,5.00
2022-08-02T09:17:23.502Z,4.30
2022-08-02T09:18:23.495Z,5.30
2022-08-02T09:19:23.493Z,4.20
2022-08-02T09:20:26.031Z,5.30
2022-08-02T09:21:23.495Z,6.10
2022-08-02T09:22:23.501Z,5.20
2022-08-02T09:23:23.485Z,7.00
2022-08-02T09:24:23.489Z,6.00
2022-08-02T09:25:23.483Z,6.50
2022-08-02T09:26:23.481Z,5.30
2022-08-02T09:27:23.475Z,4.60
2022-08-02T09:28:23.474Z,6.90
2022-08-02T09:29:23.472Z,5.90
2022-08-02T09:30:23.469Z,6.90
2022-08-02T09:31:23.465Z,4.80
2022-08-02T09:32:23.468Z,5.80
2022-08-02T09:33:23.461Z,3.50
2022-08-02T09:34:23.457Z,4.70
2022-08-02T09:35:23.457Z,5.90
2022-08-02T09:36:23.457Z,5.20
2022-08-02T09:37:23.448Z,4.50
2022-08-02T09:38:23.447Z,5.50
2022-08-02T09:39:23.444Z,17.40
2022-08-02T09:40:23.438Z,4.00
2022-08-02T09:41:23.436Z,5.70
2022-08-02T09:42:23.430Z,4.00
2022-08-02T09:43:23.434Z,5.90
2022-08-02T09:44:23.427Z,5.60
2022-08-02T09:45:23.435Z,7.10
2022-08-02T09:46:24.552Z,4.40
2022-08-02T09:47:23.422Z,5.00
2022-08-02T09:48:23.414Z,4.80
2022-08-02T09:49:23.427Z,5.10
2022-08-02T09:50:23.408Z,4.70
2022-08-02T09:51:23.405Z,4.80
2022-08-02T09:52:23.398Z,4.80
2022-08-02T09:53:23.398Z,7.30
2022-08-02T09:54:23.399Z,4.10
2022-08-02T09:55:23.395Z,4.40
2022-08-02T09:56:34.288Z,5.70
2022-08-02T09:57:23.380Z,5.30
2022-08-02T09:58:23.379Z,6.00
2022-08-02T09:59:23.378Z,7.60
2022-08-02T10:00:43.567Z,4.80
2022-08-02T10:01:34.852Z,5.00
2022-08-02T10:02:23.545Z,4.00
2022-08-02T10:03:23.364Z,5.40
2022-08-02T10:04:24.844Z,5.10
2022-08-02T10:05:23.345Z,4.30
2022-08-02T10:06:23.343Z,5.80
2022-08-02T10:07:23.354Z,7.20
2022-08-02T10:08:23.348Z,4.50
2022-08-02T10:09:23.329Z,5.20
2022-08-02T10:10:23.322Z,5.80
2022-08-02T10:11:23.316Z,4.00
2022-08-02T10:12:23.319Z,4.30
2022-08-02T10:13:23.307Z,5.40
2022-08-02T10:14:23.414Z,6.20
2022-08-02T10:15:27.085Z,5.60
2022-08-02T10:16:23.295Z,6.50
2022-08-02T10:17:23.283Z,5.40
2022-08-02T10:18:38.313Z,5.00
2022-08-02T10:20:02.675Z,5.30
2022-08-02T10:20:23.275Z,7.20
2022-08-02T10:21:23.265Z,6.50
2022-08-02T10:22:23.257Z,5.50
2022-08-02T10:23:23.248Z,5.60
2022-08-02T10:24:23.242Z,5.20
2022-08-02T10:25:23.240Z,5.00
2022-08-02T10:26:23.240Z,6.20
2022-08-02T10:27:23.226Z,7.30
2022-08-02T10:28:23.217Z,8.80
2022-08-02T10:29:23.211Z,5.00
2022-08-02T10:30:23.211Z,5.60
2022-08-02T10:31:23.206Z,4.20
2022-08-02T10:32:23.191Z,5.60
2022-08-02T10:33:23.187Z,5.20
2022-08-02T10:34:23.179Z,4.80
2022-08-02T10:35:26.009Z,6.80
2022-08-02T10:36:23.177Z,4.90
2022-08-02T10:37:23.156Z,7.30
2022-08-02T10:38:23.150Z,4.60
2022-08-02T10:39:23.145Z,9.20
2022-08-02T10:40:23.139Z,7.60
2022-08-02T10:41:23.129Z,9.50
2022-08-02T10:42:23.122Z,4.40
2022-08-02T10:43:23.120Z,7.10
2022-08-02T10:44:24.656Z,5.80
2022-08-02T10:45:23.133Z,6.30
2022-08-02T10:46:23.100Z,6.10
2022-08-02T10:47:23.084Z,6.70
2022-08-02T10:48:23.075Z,4.60
2022-08-02T10:49:40.405Z,5.10
2022-08-02T10:50:23.063Z,6.70
2022-08-02T10:51:24.525Z,6.00
2022-08-02T10:52:23.049Z,5.40
2022-08-02T10:53:23.040Z,4.30
2022-08-02T10:54:23.026Z,5.80
2022-08-02T10:55:23.044Z,6.30
2022-08-02T10:56:23.013Z,6.50
2022-08-02T10:57:23.210Z,4.00
2022-08-02T10:58:26.043Z,6.10
2022-08-02T10:59:22.985Z,7.80
2022-08-02T11:00:22.980Z,5.40
2022-08-02T11:01:23.077Z,5.80
2022-08-02T11:02:22.964Z,4.80
2022-08-02T11:03:22.958Z,4.50
2022-08-02T11:04:22.947Z,4.90
2022-08-02T11:05:22.941Z,4.80
2022-08-02T11:06:25.184Z,4.50
2022-08-02T11:07:22.925Z,4.30
2022-08-02T11:08:22.913Z,5.40
2022-08-02T11:09:22.904Z,5.00
2022-08-02T11:10:22.898Z,4.10
2022-08-02T11:11:26.146Z,4.70
2022-08-02T11:12:22.887Z,6.20
2022-08-02T11:13:22.895Z,5.20
2022-08-02T11:14:22.866Z,5.70
2022-08-02T11:15:22.866Z,4.20
2022-08-02T11:16:22.844Z,4.30
2022-08-02T11:17:22.839Z,4.20
2022-08-02T11:18:22.831Z,7.80
2022-08-02T11:19:22.818Z,5.00
2022-08-02T11:20:22.814Z,4.20
2022-08-02T11:21:22.809Z,6.40
2022-08-02T11:22:25.797Z,6.30
2022-08-02T11:23:22.786Z,3.80
2022-08-02T11:24:22.776Z,4.50
2022-08-02T11:25:22.799Z,5.40
2022-08-02T11:26:22.763Z,5.40
2022-08-02T11:27:22.757Z,4.10
2022-08-02T11:28:25.006Z,6.60
2022-08-02T11:29:22.736Z,13.40
2022-08-02T11:30:26.489Z,6.60
2022-08-02T11:31:22.721Z,6.00
2022-08-02T11:32:30.497Z,7.80
2022-08-02T11:33:22.703Z,4.50
2022-08-02T11:34:26.610Z,4.20
2022-08-02T11:35:22.686Z,4.80
2022-08-02T11:36:22.831Z,4.60
2022-08-02T11:37:22.670Z,5.00
2022-08-02T11:38:22.660Z,6.40
2022-08-02T11:39:22.662Z,8.60
2022-08-02T11:40:22.649Z,3.60
2022-08-02T11:41:47.404Z,6.50
2022-08-02T11:42:22.624Z,7.30
2022-08-02T11:43:22.620Z,6.00
2022-08-02T11:44:23.396Z,4.60
2022-08-02T11:45:26.299Z,8.70
2022-08-02T11:46:22.598Z,5.40
2022-08-02T11:47:22.587Z,4.70
2022-08-02T11:48:22.577Z,4.90
2022-08-02T11:49:22.635Z,6.60
2022-08-02T11:50:30.183Z,4.70
2022-08-02T11:51:22.549Z,5.50
2022-08-02T11:52:22.543Z,5.80
2022-08-02T11:53:22.535Z,7.00
2022-08-02T11:54:22.526Z,12.20
2022-08-02T11:55:22.517Z,5.60
2022-08-02T11:56:25.169Z,5.80
2022-08-02T11:57:22.497Z,7.90
2022-08-02T11:58:22.487Z,5.50
2022-08-02T11:59:22.482Z,4.80
2022-08-02T12:00:22.475Z,4.20
2022-08-02T12:01:22.466Z,5.70
2022-08-02T12:02:22.459Z,4.80
2022-08-02T12:03:22.520Z,4.70
2022-08-02T12:04:23.560Z,4.60
2022-08-02T12:05:27.266Z,7.60
2022-08-02T12:06:22.422Z,5.30
2022-08-02T12:07:30.327Z,4.70
2022-08-02T12:08:25.068Z,6.10
2022-08-02T12:09:22.392Z,6.00
2022-08-02T12:10:22.386Z,6.20
2022-08-02T12:11:22.374Z,5.90
2022-08-02T12:12:22.364Z,5.50
2022-08-02T12:13:22.357Z,7.50
2022-08-02T12:14:22.348Z,5.10
2022-08-02T12:15:22.391Z,4.70
2022-08-02T12:16:22.339Z,4.40
2022-08-02T12:17:22.321Z,6.90
2022-08-02T12:18:22.311Z,5.70
2022-08-02T12:19:22.307Z,4.90
2022-08-02T12:20:22.290Z,5.60
2022-08-02T12:21:22.284Z,4.80
2022-08-02T12:22:24.445Z,6.50
2022-08-02T12:23:22.268Z,5.10
2022-08-02T12:24:22.260Z,5.90
2022-08-02T12:25:33.568Z,4.80
2022-08-02T12:26:22.239Z,5.40
2022-08-02T12:27:22.241Z,6.00
2022-08-02T12:28:22.239Z,4.30
2022-08-02T12:29:57.942Z,7.00
2022-08-02T12:30:27.563Z,6.10
2022-08-02T12:31:22.198Z,5.70
2022-08-02T12:32:22.191Z,6.10
2022-08-02T12:33:22.182Z,6.00
2022-08-02T12:34:22.178Z,5.50
2022-08-02T12:35:26.004Z,6.30
2022-08-02T12:36:22.155Z,5.70
2022-08-02T12:37:22.150Z,6.40
2022-08-02T12:38:22.142Z,6.10
2022-08-02T12:39:22.134Z,7.00
2022-08-02T12:40:25.446Z,6.00
2022-08-02T12:41:31.691Z,5.80
2022-08-02T12:42:22.105Z,6.20
2022-08-02T12:43:22.107Z,5.90
2022-08-02T12:44:22.083Z,5.50
2022-08-02T12:45:22.087Z,5.90
2022-08-02T12:46:22.067Z,4.90
2022-08-02T12:47:22.064Z,4.70
2022-08-02T12:48:22.046Z,5.60
2022-08-02T12:49:22.094Z,4.50
2022-08-02T12:50:22.031Z,4.80
2022-08-02T12:51:22.023Z,6.30
2022-08-02T12:52:22.013Z,7.60
2022-08-02T12:53:22.004Z,6.60
2022-08-02T12:54:22.978Z,4.80
2022-08-02T12:55:21.988Z,5.40
2022-08-02T12:56:21.981Z,5.50
2022-08-02T12:57:21.979Z,7.00
2022-08-02T12:58:21.959Z,6.10
2022-08-02T12:59:21.958Z,5.20
2022-08-02T13:00:21.950Z,5.00
2022-08-02T13:01:22.052Z,5.30
2022-08-02T13:02:22.140Z,5.30
2022-08-02T13:04:09.271Z,8.00
2022-08-02T13:04:21.911Z,6.60
2022-08-02T13:05:21.904Z,5.50
2022-08-02T13:06:50.492Z,5.70
2022-08-02T13:07:21.887Z,5.00
2022-08-02T13:08:21.878Z,5.60
2022-08-02T13:09:25.812Z,5.20
2022-08-02T13:10:21.860Z,5.20
2022-08-02T13:11:21.857Z,4.70
2022-08-02T13:12:21.840Z,7.00